createdAt,value
2022-12-25T00:00:38.491Z,5.49
2022-12-25T00:01:37.078Z,5.50
2022-12-25T00:02:37.378Z,5.49
2022-12-25T00:03:38.563Z,5.50
2022-12-25T00:04:37.099Z,5.50
2022-12-25T00:05:37.002Z,5.49
2022-12-25T00:06:37.036Z,5.48
2022-12-25T00:07:36.923Z,5.46
2022-12-25T00:08:37.020Z,5.45
2022-12-25T00:09:37.005Z,5.45
2022-12-25T00:10:44.572Z,5.43
2022-12-25T00:11:38.077Z,5.45
2022-12-25T00:12:36.890Z,5.48
2022-12-25T00:13:36.935Z,5.50
2022-12-25T00:14:36.939Z,5.52
2022-12-25T00:15:36.834Z,5.56
2022-12-25T00:16:37.410Z,5.60
2022-12-25T00:17:36.891Z,5.66
2022-12-25T00:18:36.847Z,5.70
2022-12-25T00:19:36.937Z,5.71
2022-12-25T00:20:36.788Z,5.74
2022-12-25T00:21:36.751Z,5.75
2022-12-25T00:22:36.951Z,5.81
2022-12-25T00:23:37.541Z,5.83
2022-12-25T00:24:36.871Z,5.86
2022-12-25T00:25:37.114Z,5.91
2022-12-25T00:26:36.777Z,5.92
2022-12-25T00:27:36.754Z,5.95
2022-12-25T00:28:36.699Z,5.98
2022-12-25T00:29:36.680Z,6.00
2022-12-25T00:30:36.669Z,6.01
2022-12-25T00:31:36.718Z,6.03
2022-12-25T00:32:36.799Z,6.04
2022-12-25T00:33:36.685Z,6.04
2022-12-25T00:34:36.697Z,6.06
2022-12-25T00:35:36.655Z,6.06
2022-12-25T00:36:41.603Z,6.06
2022-12-25T00:37:37.577Z,6.07
2022-12-25T00:38:36.652Z,6.06
2022-12-25T00:39:36.550Z,6.04
2022-12-25T00:40:36.625Z,6.04
2022-12-25T00:41:36.545Z,6.03
2022-12-25T00:42:36.547Z,6.04
2022-12-25T00:43:36.559Z,6.00
2022-12-25T00:44:36.536Z,6.03
2022-12-25T00:45:36.562Z,6.03
2022-12-25T00:46:36.530Z,6.01
2022-12-25T00:47:37.745Z,6.00
2022-12-25T00:48:37.425Z,6.03
2022-12-25T00:49:36.577Z,6.04
2022-12-25T00:50:36.447Z,6.06
2022-12-25T00:51:36.437Z,6.07
2022-12-25T00:52:36.489Z,6.11
2022-12-25T00:53:36.414Z,6.13
2022-12-25T00:54:36.439Z,6.18
2022-12-25T00:55:37.372Z,6.21
2022-12-25T00:56:36.428Z,6.22
2022-12-25T00:57:36.365Z,6.25
2022-12-25T00:58:36.462Z,6.29
2022-12-25T00:59:36.380Z,6.30
2022-12-25T01:00:36.508Z,6.30
2022-12-25T01:01:36.446Z,6.33
2022-12-25T01:02:36.489Z,6.35
2022-12-25T01:03:36.286Z,6.35
2022-12-25T01:04:36.318Z,6.35
2022-12-25T01:05:36.352Z,6.33
2022-12-25T01:06:36.270Z,6.35
2022-12-25T01:07:36.259Z,6.36
2022-12-25T01:08:36.250Z,6.33
2022-12-25T01:09:36.198Z,6.35
2022-12-25T01:10:36.241Z,6.35
2022-12-25T01:11:36.184Z,6.36
2022-12-25T01:12:36.218Z,6.38
2022-12-25T01:13:36.226Z,6.36
2022-12-25T01:14:36.206Z,6.38
2022-12-25T01:15:36.163Z,6.38
2022-12-25T01:16:36.297Z,6.40
2022-12-25T01:17:36.135Z,6.41
2022-12-25T01:18:36.138Z,6.40
2022-12-25T01:19:36.131Z,6.40
2022-12-25T01:20:36.118Z,6.40
2022-12-25T01:21:36.096Z,6.41
2022-12-25T01:22:36.124Z,6.40
2022-12-25T01:23:36.083Z,6.38
2022-12-25T01:24:36.099Z,6.35
2022-12-25T01:25:36.043Z,6.33
2022-12-25T01:26:36.054Z,6.30
2022-12-25T01:27:36.014Z,6.29
2022-12-25T01:28:36.037Z,6.25
2022-12-25T01:29:36.016Z,6.21
2022-12-25T01:30:35.999Z,6.21
2022-12-25T01:31:36.071Z,6.18
2022-12-25T01:32:35.985Z,6.16
2022-12-25T01:33:35.957Z,6.16
2022-12-25T01:34:35.964Z,6.16
2022-12-25T01:35:35.927Z,6.16
2022-12-25T01:36:35.938Z,6.16
2022-12-25T01:37:35.923Z,6.16
2022-12-25T01:38:35.929Z,6.16
2022-12-25T01:39:35.901Z,6.16
2022-12-25T01:40:35.957Z,6.16
2022-12-25T01:41:35.895Z,6.16
2022-12-25T01:42:35.908Z,6.14
2022-12-25T01:43:36.783Z,6.14
2022-12-25T01:44:35.886Z,6.14
2022-12-25T01:45:35.914Z,6.13
2022-12-25T01:46:35.849Z,6.13
2022-12-25T01:47:35.789Z,6.11
2022-12-25T01:48:35.825Z,6.11
2022-12-25T01:49:35.784Z,6.13
2022-12-25T01:50:35.865Z,6.11
2022-12-25T01:51:35.755Z,6.10
2022-12-25T01:52:35.800Z,6.11
2022-12-25T01:53:35.762Z,6.10
2022-12-25T01:54:35.743Z,6.06
2022-12-25T01:55:35.701Z,6.06
2022-12-25T01:56:35.716Z,6.04
2022-12-25T01:57:35.775Z,6.03
2022-12-25T01:58:36.649Z,6.01
2022-12-25T01:59:35.675Z,6.01
2022-12-25T02:00:35.933Z,6.00
2022-12-25T02:01:35.860Z,6.03
2022-12-25T02:02:35.875Z,6.00
2022-12-25T02:03:35.685Z,6.00
2022-12-25T02:04:35.678Z,6.01
2022-12-25T02:05:35.648Z,6.03
2022-12-25T02:06:35.644Z,6.04
2022-12-25T02:07:35.593Z,6.07
2022-12-25T02:08:35.617Z,6.09
2022-12-25T02:09:35.584Z,6.10
2022-12-25T02:10:35.597Z,6.11
2022-12-25T02:11:35.552Z,6.13
2022-12-25T02:12:35.605Z,6.14
2022-12-25T02:13:35.537Z,6.16
2022-12-25T02:14:35.546Z,6.14
2022-12-25T02:15:35.543Z,6.16
2022-12-25T02:16:35.606Z,6.18
2022-12-25T02:17:36.459Z,6.18
2022-12-25T02:18:35.538Z,6.21
2022-12-25T02:19:35.577Z,6.21
2022-12-25T02:20:35.454Z,6.22
2022-12-25T02:21:35.479Z,6.26
2022-12-25T02:22:35.459Z,6.29
2022-12-25T02:23:36.374Z,6.32
2022-12-25T02:24:35.424Z,6.36
2022-12-25T02:25:35.424Z,6.36
2022-12-25T02:26:35.385Z,6.40
2022-12-25T02:27:35.346Z,6.41
2022-12-25T02:28:35.412Z,6.43
2022-12-25T02:29:35.320Z,6.44
2022-12-25T02:30:35.348Z,6.46
2022-12-25T02:31:35.319Z,6.47
2022-12-25T02:32:35.319Z,6.48
2022-12-25T02:33:35.299Z,6.48
2022-12-25T02:34:35.324Z,6.48
2022-12-25T02:35:35.313Z,6.51
2022-12-25T02:36:35.285Z,6.50
2022-12-25T02:37:35.255Z,6.50
2022-12-25T02:38:35.314Z,6.50
2022-12-25T02:39:35.219Z,6.46
2022-12-25T02:40:35.251Z,6.43
2022-12-25T02:41:35.211Z,6.40
2022-12-25T02:42:35.223Z,6.36
2022-12-25T02:43:35.176Z,6.33
2022-12-25T02:44:35.181Z,6.30
2022-12-25T02:45:35.217Z,6.32
2022-12-25T02:46:35.250Z,6.28
2022-12-25T02:47:35.138Z,6.26
2022-12-25T02:48:36.098Z,6.25
2022-12-25T02:49:35.108Z,6.19
2022-12-25T02:50:35.127Z,6.19
2022-12-25T02:51:35.094Z,6.18
2022-12-25T02:52:35.115Z,6.18
2022-12-25T02:53:35.055Z,6.19
2022-12-25T02:54:35.089Z,6.21
2022-12-25T02:55:35.035Z,6.22
2022-12-25T02:56:35.093Z,6.26
2022-12-25T02:57:35.974Z,6.30
2022-12-25T02:58:35.041Z,6.30
2022-12-25T02:59:35.102Z,6.33
2022-12-25T03:00:35.038Z,6.33
2022-12-25T03:01:35.135Z,6.36
2022-12-25T03:02:35.035Z,6.40
2022-12-25T03:03:35.019Z,6.43
2022-12-25T03:04:34.976Z,6.41
2022-12-25T03:05:34.956Z,6.44
2022-12-25T03:06:34.966Z,6.47
2022-12-25T03:07:34.925Z,6.48
2022-12-25T03:08:34.922Z,6.47
2022-12-25T03:09:34.892Z,6.47
2022-12-25T03:10:34.895Z,6.47
2022-12-25T03:11:34.904Z,6.47
2022-12-25T03:12:34.873Z,6.48
2022-12-25T03:13:34.849Z,6.47
2022-12-25T03:14:34.832Z,6.46
2022-12-25T03:15:34.855Z,6.47
2022-12-25T03:16:34.857Z,6.47
2022-12-25T03:17:34.827Z,6.47
2022-12-25T03:18:34.791Z,6.47
2022-12-25T03:19:34.800Z,6.50
2022-12-25T03:20:34.776Z,6.51
2022-12-25T03:21:34.772Z,6.54
2022-12-25T03:22:34.742Z,6.54
2022-12-25T03:23:34.769Z,6.54
2022-12-25T03:24:34.727Z,6.56
2022-12-25T03:25:34.733Z,6.59
2022-12-25T03:26:34.711Z,6.61
2022-12-25T03:27:34.725Z,6.61
2022-12-25T03:28:34.679Z,6.61
2022-12-25T03:29:34.709Z,6.63
2022-12-25T03:30:34.685Z,6.66
2022-12-25T03:31:34.669Z,6.68
2022-12-25T03:32:34.621Z,6.68
2022-12-25T03:33:45.020Z,6.68
2022-12-25T03:34:35.625Z,6.69
2022-12-25T03:35:34.627Z,6.72
2022-12-25T03:36:34.651Z,6.71
2022-12-25T03:37:34.599Z,6.72
2022-12-25T03:38:34.592Z,6.73
2022-12-25T03:39:34.586Z,6.73
2022-12-25T03:40:34.562Z,6.77
2022-12-25T03:41:34.554Z,6.79
2022-12-25T03:42:34.517Z,6.79
2022-12-25T03:43:34.549Z,6.81
2022-12-25T03:44:34.497Z,6.81
2022-12-25T03:45:34.515Z,6.83
2022-12-25T03:46:34.621Z,6.86
2022-12-25T03:47:34.477Z,6.86
2022-12-25T03:48:34.448Z,6.87
2022-12-25T03:49:34.481Z,6.86
2022-12-25T03:50:34.434Z,6.87
2022-12-25T03:51:34.465Z,6.89
2022-12-25T03:52:34.424Z,6.87
2022-12-25T03:53:34.427Z,6.86
2022-12-25T03:54:34.382Z,6.87
2022-12-25T03:55:34.406Z,6.87
2022-12-25T03:56:34.357Z,6.87
2022-12-25T03:57:34.400Z,6.87
2022-12-25T03:58:34.337Z,6.89
2022-12-25T03:59:34.377Z,6.89
2022-12-25T04:00:34.322Z,6.87
2022-12-25T04:01:34.450Z,6.87
2022-12-25T04:02:34.519Z,6.87
2022-12-25T04:03:34.382Z,6.89
2022-12-25T04:04:34.268Z,6.89
2022-12-25T04:05:34.292Z,6.89
2022-12-25T04:06:34.252Z,6.89
2022-12-25T04:07:34.262Z,6.87
2022-12-25T04:08:34.252Z,6.87
2022-12-25T04:09:34.248Z,6.89
2022-12-25T04:10:34.206Z,6.91
2022-12-25T04:11:34.215Z,6.94
2022-12-25T04:12:34.176Z,6.94
2022-12-25T04:13:34.214Z,6.95
2022-12-25T04:14:34.166Z,6.94
2022-12-25T04:15:34.220Z,6.94
2022-12-25T04:16:34.136Z,6.95
2022-12-25T04:17:34.148Z,6.94
2022-12-25T04:18:34.123Z,6.95
2022-12-25T04:19:34.137Z,6.98
2022-12-25T04:20:34.108Z,6.97
2022-12-25T04:21:34.101Z,6.98
2022-12-25T04:22:34.083Z,7.01
2022-12-25T04:23:34.084Z,6.99
2022-12-25T04:24:34.058Z,7.01
2022-12-25T04:25:34.056Z,7.01
2022-12-25T04:26:34.027Z,7.01
2022-12-25T04:27:34.050Z,7.01
2022-12-25T04:28:34.000Z,7.01
2022-12-25T04:29:34.980Z,7.02
2022-12-25T04:30:33.993Z,7.01
2022-12-25T04:31:34.051Z,7.02
2022-12-25T04:32:34.916Z,7.01
2022-12-25T04:33:33.979Z,7.02
2022-12-25T04:34:33.969Z,7.02
2022-12-25T04:35:33.982Z,7.05
2022-12-25T04:36:33.932Z,7.05
2022-12-25T04:37:34.893Z,7.07
2022-12-25T04:38:33.911Z,7.07
2022-12-25T04:39:33.939Z,7.08
2022-12-25T04:40:33.870Z,7.12
2022-12-25T04:41:33.894Z,7.12
2022-12-25T04:42:33.859Z,7.09
2022-12-25T04:43:33.894Z,7.09
2022-12-25T04:44:33.860Z,7.12
2022-12-25T04:45:33.860Z,7.09
2022-12-25T04:46:34.103Z,7.12
2022-12-25T04:47:33.821Z,7.12
2022-12-25T04:48:33.876Z,7.12
2022-12-25T04:49:33.801Z,7.13
2022-12-25T04:50:33.782Z,7.12
2022-12-25T04:51:33.787Z,7.08
2022-12-25T04:52:33.755Z,7.09
2022-12-25T04:53:33.757Z,7.08
2022-12-25T04:54:33.715Z,7.08
2022-12-25T04:55:33.752Z,7.07
2022-12-25T04:56:33.755Z,7.08
2022-12-25T04:57:33.726Z,7.08
2022-12-25T04:58:33.767Z,7.08
2022-12-25T04:59:33.788Z,7.07
2022-12-25T05:00:33.705Z,7.08
2022-12-25T05:01:33.748Z,7.08
2022-12-25T05:02:34.000Z,7.08
2022-12-25T05:03:33.839Z,7.09
2022-12-25T05:04:33.624Z,7.12
2022-12-25T05:05:33.654Z,7.12
2022-12-25T05:06:33.685Z,7.12
2022-12-25T05:07:33.735Z,7.12
2022-12-25T05:08:33.679Z,7.12
2022-12-25T05:09:33.678Z,7.13
2022-12-25T05:10:33.537Z,7.13
2022-12-25T05:11:33.730Z,7.12
2022-12-25T05:12:33.632Z,7.12
2022-12-25T05:13:33.550Z,7.13
2022-12-25T05:14:33.490Z,7.13
2022-12-25T05:15:33.671Z,7.16
2022-12-25T05:16:33.520Z,7.16
2022-12-25T05:17:33.502Z,7.17
2022-12-25T05:18:33.467Z,7.17
2022-12-25T05:19:33.461Z,7.19
2022-12-25T05:20:39.563Z,7.20
2022-12-25T05:21:34.440Z,7.20
2022-12-25T05:22:33.424Z,7.24
2022-12-25T05:23:33.429Z,7.26
2022-12-25T05:24:33.433Z,7.31
2022-12-25T05:25:33.559Z,7.32
2022-12-25T05:26:33.369Z,7.34
2022-12-25T05:27:33.377Z,7.37
2022-12-25T05:28:33.444Z,7.40
2022-12-25T05:29:33.392Z,7.40
2022-12-25T05:30:33.401Z,7.42
2022-12-25T05:31:33.577Z,7.42
2022-12-25T05:32:33.305Z,7.47
2022-12-25T05:33:33.320Z,7.49
2022-12-25T05:34:33.273Z,7.52
2022-12-25T05:35:33.299Z,7.53
2022-12-25T05:36:33.255Z,7.56
2022-12-25T05:37:33.276Z,7.56
2022-12-25T05:38:33.227Z,7.59
2022-12-25T05:39:33.260Z,7.59
2022-12-25T05:40:33.227Z,7.62
2022-12-25T05:41:34.784Z,7.63
2022-12-25T05:42:33.181Z,7.63
2022-12-25T05:43:33.227Z,7.67
2022-12-25T05:44:33.168Z,7.67
2022-12-25T05:45:33.176Z,7.66
2022-12-25T05:46:33.181Z,7.66
2022-12-25T05:47:33.235Z,7.67
2022-12-25T05:48:33.127Z,7.67
2022-12-25T05:49:33.130Z,7.71
2022-12-25T05:50:33.105Z,7.71
2022-12-25T05:51:33.109Z,7.71
2022-12-25T05:52:33.176Z,7.72
2022-12-25T05:53:33.093Z,7.74
2022-12-25T05:54:33.049Z,7.75
2022-12-25T05:55:33.092Z,7.75
2022-12-25T05:56:33.044Z,7.77
2022-12-25T05:57:33.040Z,7.78
2022-12-25T05:58:33.005Z,7.77
2022-12-25T05:59:33.023Z,7.78
2022-12-25T06:00:32.993Z,7.81
2022-12-25T06:01:33.149Z,7.81
2022-12-25T06:02:33.149Z,7.79
2022-12-25T06:03:33.011Z,7.81
2022-12-25T06:04:32.942Z,7.81
2022-12-25T06:05:32.973Z,7.82
2022-12-25T06:06:32.922Z,7.82
2022-12-25T06:07:32.933Z,7.82
2022-12-25T06:08:32.890Z,7.82
2022-12-25T06:09:32.902Z,7.85
2022-12-25T06:10:32.869Z,7.85
2022-12-25T06:11:32.887Z,7.84
2022-12-25T06:12:32.859Z,7.85
2022-12-25T06:13:32.855Z,7.85
2022-12-25T06:14:32.835Z,7.85
2022-12-25T06:15:32.847Z,7.87
2022-12-25T06:16:37.973Z,7.87
2022-12-25T06:17:33.841Z,7.85
2022-12-25T06:18:32.782Z,7.85
2022-12-25T06:19:32.875Z,7.85
2022-12-25T06:20:32.899Z,7.85
2022-12-25T06:21:32.795Z,7.84
2022-12-25T06:22:32.738Z,7.84
2022-12-25T06:23:32.805Z,7.84
2022-12-25T06:24:32.747Z,7.84
2022-12-25T06:25:32.730Z,7.81
2022-12-25T06:26:32.712Z,7.81
2022-12-25T06:27:32.745Z,7.79
2022-12-25T06:28:32.764Z,7.82
2022-12-25T06:29:32.743Z,7.82
2022-12-25T06:30:32.653Z,7.84
2022-12-25T06:31:32.767Z,7.85
2022-12-25T06:32:32.699Z,7.82
2022-12-25T06:33:32.657Z,7.84
2022-12-25T06:34:32.678Z,7.84
2022-12-25T06:35:32.667Z,7.85
2022-12-25T06:36:32.615Z,7.84
2022-12-25T06:37:32.675Z,7.85
2022-12-25T06:38:32.566Z,7.84
2022-12-25T06:39:32.713Z,7.85
2022-12-25T06:40:32.540Z,7.85
2022-12-25T06:41:32.621Z,7.85
2022-12-25T06:42:32.657Z,7.87
2022-12-25T06:43:32.667Z,7.85
2022-12-25T06:44:32.532Z,7.84
2022-12-25T06:45:32.598Z,7.85
2022-12-25T06:46:32.479Z,7.85
2022-12-25T06:47:32.728Z,7.85
2022-12-25T06:48:32.477Z,7.84
2022-12-25T06:49:32.542Z,7.82
2022-12-25T06:50:32.518Z,7.81
2022-12-25T06:51:32.423Z,7.81
2022-12-25T06:52:33.356Z,7.79
2022-12-25T06:53:39.753Z,7.78
2022-12-25T06:54:33.385Z,7.79
2022-12-25T06:55:32.415Z,7.78
2022-12-25T06:56:32.368Z,7.77
2022-12-25T06:57:32.366Z,7.79
2022-12-25T06:58:32.414Z,7.82
2022-12-25T06:59:32.348Z,7.81
2022-12-25T07:00:32.329Z,7.82
2022-12-25T07:01:32.517Z,7.82
2022-12-25T07:02:32.440Z,7.84
2022-12-25T07:03:32.309Z,7.84
2022-12-25T07:04:32.323Z,7.84
2022-12-25T07:05:32.284Z,7.84
2022-12-25T07:06:32.276Z,7.85
2022-12-25T07:07:32.256Z,7.85
2022-12-25T07:08:33.170Z,7.85
2022-12-25T07:09:32.264Z,7.89
2022-12-25T07:10:32.201Z,7.90
2022-12-25T07:11:32.216Z,7.90
2022-12-25T07:12:32.182Z,7.92
2022-12-25T07:13:32.191Z,7.93
2022-12-25T07:14:32.168Z,7.93
2022-12-25T07:15:32.171Z,7.93
2022-12-25T07:16:32.254Z,7.94
2022-12-25T07:17:32.146Z,7.97
2022-12-25T07:18:32.167Z,7.97
2022-12-25T07:19:32.123Z,7.99
2022-12-25T07:20:32.106Z,7.99
2022-12-25T07:21:32.119Z,8.02
2022-12-25T07:22:32.083Z,8.03
2022-12-25T07:23:32.082Z,8.03
2022-12-25T07:24:32.055Z,8.04
2022-12-25T07:25:37.108Z,8.08
2022-12-25T07:26:33.025Z,8.08
2022-12-25T07:27:32.035Z,8.08
2022-12-25T07:28:32.060Z,8.11
2022-12-25T07:29:32.048Z,8.10
2022-12-25T07:30:32.060Z,8.12
2022-12-25T07:31:31.982Z,8.12
2022-12-25T07:32:32.026Z,8.14
2022-12-25T07:33:31.957Z,8.15
2022-12-25T07:34:32.026Z,8.15
2022-12-25T07:35:31.927Z,8.18
2022-12-25T07:36:31.961Z,8.15
2022-12-25T07:37:31.911Z,8.18
2022-12-25T07:38:31.930Z,8.22
2022-12-25T07:39:33.106Z,8.22
2022-12-25T07:40:31.908Z,8.25
2022-12-25T07:41:31.868Z,8.28
2022-12-25T07:42:31.884Z,8.30
2022-12-25T07:43:33.296Z,8.35
2022-12-25T07:44:31.941Z,8.37
2022-12-25T07:45:31.882Z,8.35
2022-12-25T07:46:31.834Z,8.36
2022-12-25T07:47:31.805Z,8.35
2022-12-25T07:48:31.820Z,8.36
2022-12-25T07:49:31.791Z,8.35
2022-12-25T07:50:31.786Z,8.35
2022-12-25T07:51:31.783Z,8.35
2022-12-25T07:52:33.456Z,8.39
2022-12-25T07:53:31.740Z,8.39
2022-12-25T07:54:31.754Z,8.42
2022-12-25T07:55:31.715Z,8.44
2022-12-25T07:56:31.724Z,8.45
2022-12-25T07:57:31.696Z,8.44
2022-12-25T07:58:31.735Z,8.44
2022-12-25T07:59:31.673Z,8.44
2022-12-25T08:00:31.758Z,8.44
2022-12-25T08:01:32.287Z,8.45
2022-12-25T08:02:32.022Z,8.47
2022-12-25T08:03:31.779Z,8.51
2022-12-25T08:04:33.102Z,8.53
2022-12-25T08:05:31.604Z,8.53
2022-12-25T08:06:31.986Z,8.54
2022-12-25T08:07:31.588Z,8.54
2022-12-25T08:08:31.586Z,8.53
2022-12-25T08:09:31.583Z,8.53
2022-12-25T08:10:31.608Z,8.53
2022-12-25T08:11:33.009Z,8.53
2022-12-25T08:12:32.518Z,8.54
2022-12-25T08:13:32.977Z,8.53
2022-12-25T08:14:32.989Z,8.54
2022-12-25T08:15:32.960Z,8.53
2022-12-25T08:16:32.345Z,8.53
2022-12-25T08:17:31.612Z,8.54
2022-12-25T08:18:31.501Z,8.54
2022-12-25T08:19:31.451Z,8.55
2022-12-25T08:20:31.467Z,8.55
2022-12-25T08:21:31.452Z,8.55
2022-12-25T08:22:31.552Z,8.58
2022-12-25T08:23:31.406Z,8.62
2022-12-25T08:24:31.412Z,8.62
2022-12-25T08:25:31.393Z,8.62
2022-12-25T08:26:31.448Z,8.65
2022-12-25T08:27:31.398Z,8.66
2022-12-25T08:28:31.392Z,8.66
2022-12-25T08:29:31.342Z,8.68
2022-12-25T08:30:31.386Z,8.69
2022-12-25T08:31:31.427Z,8.72
2022-12-25T08:32:31.339Z,8.73
2022-12-25T08:33:31.289Z,8.78
2022-12-25T08:34:31.307Z,8.78
2022-12-25T08:35:31.276Z,8.79
2022-12-25T08:36:31.298Z,8.81
2022-12-25T08:37:31.566Z,8.84
2022-12-25T08:38:31.256Z,8.83
2022-12-25T08:39:31.236Z,8.86
2022-12-25T08:40:31.236Z,8.86
2022-12-25T08:41:31.207Z,8.87
2022-12-25T08:42:31.216Z,8.91
2022-12-25T08:43:31.169Z,8.91
2022-12-25T08:44:31.654Z,8.94
2022-12-25T08:45:35.022Z,8.97
2022-12-25T08:46:31.256Z,8.99
2022-12-25T08:47:31.151Z,9.04
2022-12-25T08:48:31.182Z,9.05
2022-12-25T08:49:31.106Z,9.09
2022-12-25T08:50:31.130Z,9.12
2022-12-25T08:51:31.105Z,9.12
2022-12-25T08:52:31.112Z,9.12
2022-12-25T08:53:31.075Z,9.15
2022-12-25T08:54:31.147Z,9.18
2022-12-25T08:55:31.051Z,9.18
2022-12-25T08:56:31.089Z,9.20
2022-12-25T08:57:31.021Z,9.18
2022-12-25T08:58:31.060Z,9.18
2022-12-25T08:59:31.044Z,9.20
2022-12-25T09:00:31.014Z,9.23
2022-12-25T09:01:31.104Z,9.24
2022-12-25T09:02:31.256Z,9.24
2022-12-25T09:03:31.012Z,9.25
2022-12-25T09:04:31.050Z,9.27
2022-12-25T09:05:30.947Z,9.25
2022-12-25T09:06:30.973Z,9.24
2022-12-25T09:07:30.922Z,9.23
2022-12-25T09:08:30.976Z,9.24
2022-12-25T09:09:30.920Z,9.25
2022-12-25T09:10:30.919Z,9.24
2022-12-25T09:11:30.877Z,9.25
2022-12-25T09:12:30.890Z,9.25
2022-12-25T09:13:30.874Z,9.27
2022-12-25T09:14:31.169Z,9.28
2022-12-25T09:15:32.375Z,9.31
2022-12-25T09:16:32.411Z,9.31
2022-12-25T09:17:32.256Z,9.32
2022-12-25T09:18:32.317Z,9.34
2022-12-25T09:19:32.239Z,9.34
2022-12-25T09:20:32.273Z,9.38
2022-12-25T09:21:30.845Z,9.38
2022-12-25T09:22:32.228Z,9.42
2022-12-25T09:23:30.781Z,9.42
2022-12-25T09:24:30.844Z,9.45
2022-12-25T09:25:30.736Z,9.46
2022-12-25T09:26:30.741Z,9.46
2022-12-25T09:27:30.703Z,9.49
2022-12-25T09:28:30.740Z,9.52
2022-12-25T09:29:30.686Z,9.53
2022-12-25T09:30:30.719Z,9.57
2022-12-25T09:31:30.749Z,9.57
2022-12-25T09:32:30.702Z,9.58
2022-12-25T09:33:31.315Z,9.60
2022-12-25T09:34:30.652Z,9.60
2022-12-25T09:35:30.615Z,9.60
2022-12-25T09:36:30.625Z,9.60
2022-12-25T09:37:30.645Z,9.63
2022-12-25T09:38:30.601Z,9.61
2022-12-25T09:39:30.609Z,9.64
2022-12-25T09:40:30.603Z,9.64
2022-12-25T09:41:30.534Z,9.66
2022-12-25T09:42:30.555Z,9.67
2022-12-25T09:43:30.538Z,9.66
2022-12-25T09:44:30.556Z,9.68
2022-12-25T09:45:30.519Z,9.70
2022-12-25T09:46:36.942Z,9.68
2022-12-25T09:47:31.681Z,9.70
2022-12-25T09:48:30.490Z,9.70
2022-12-25T09:49:30.478Z,9.71
2022-12-25T09:50:30.479Z,9.70
2022-12-25T09:51:30.423Z,9.71
2022-12-25T09:52:30.438Z,9.68
2022-12-25T09:53:30.407Z,9.68
2022-12-25T09:54:30.413Z,9.71
2022-12-25T09:55:30.401Z,9.70
2022-12-25T09:56:30.404Z,9.71
2022-12-25T09:57:30.376Z,9.73
2022-12-25T09:58:30.382Z,9.73
2022-12-25T09:59:30.360Z,9.73
2022-12-25T10:00:30.368Z,9.75
2022-12-25T10:01:31.357Z,9.76
2022-12-25T10:02:30.631Z,9.76
2022-12-25T10:03:30.332Z,9.78
2022-12-25T10:04:30.508Z,9.76
2022-12-25T10:05:30.275Z,9.78
2022-12-25T10:06:30.298Z,9.78
2022-12-25T10:07:30.362Z,9.78
2022-12-25T10:08:30.267Z,9.78
2022-12-25T10:09:30.248Z,9.78
2022-12-25T10:10:30.243Z,9.76
2022-12-25T10:11:30.226Z,9.78
2022-12-25T10:12:30.288Z,9.78
2022-12-25T10:13:30.194Z,9.76
2022-12-25T10:14:30.206Z,9.79
2022-12-25T10:15:30.269Z,9.79
2022-12-25T10:16:30.267Z,9.76
2022-12-25T10:17:30.146Z,9.76
2022-12-25T10:18:30.187Z,9.75
2022-12-25T10:19:30.154Z,9.75
2022-12-25T10:20:30.134Z,9.75
2022-12-25T10:21:30.124Z,9.75
2022-12-25T10:22:30.135Z,9.73
2022-12-25T10:23:30.099Z,9.73
2022-12-25T10:24:30.100Z,9.71
2022-12-25T10:25:30.074Z,9.75
2022-12-25T10:26:30.078Z,9.71
2022-12-25T10:27:30.047Z,9.71
2022-12-25T10:28:30.189Z,9.70
2022-12-25T10:29:29.998Z,9.70
2022-12-25T10:30:30.037Z,9.70
2022-12-25T10:31:30.038Z,9.68
2022-12-25T10:32:30.004Z,9.70
2022-12-25T10:33:30.917Z,9.70
2022-12-25T10:34:30.036Z,9.70
2022-12-25T10:35:29.958Z,9.67
2022-12-25T10:36:29.967Z,9.66
2022-12-25T10:37:29.943Z,9.68
2022-12-25T10:38:29.932Z,9.67
2022-12-25T10:39:29.907Z,9.66
2022-12-25T10:40:29.911Z,9.66
2022-12-25T10:41:29.878Z,9.66
2022-12-25T10:42:29.892Z,9.66
2022-12-25T10:43:29.850Z,9.64
2022-12-25T10:44:29.898Z,9.66
2022-12-25T10:45:29.834Z,9.67
2022-12-25T10:46:29.957Z,9.67
2022-12-25T10:47:29.826Z,9.66
2022-12-25T10:48:29.835Z,9.67
2022-12-25T10:49:29.785Z,9.67
2022-12-25T10:50:29.817Z,9.67
2022-12-25T10:51:30.725Z,9.67
2022-12-25T10:52:29.820Z,9.67
2022-12-25T10:53:29.740Z,9.68
2022-12-25T10:54:29.772Z,9.68
2022-12-25T10:55:30.045Z,9.68
2022-12-25T10:56:29.753Z,9.70
2022-12-25T10:57:29.751Z,9.70
2022-12-25T10:58:29.726Z,9.70
2022-12-25T10:59:29.693Z,9.71
2022-12-25T11:00:31.172Z,9.71
2022-12-25T11:01:30.586Z,9.71
2022-12-25T11:02:30.142Z,9.71
2022-12-25T11:03:31.283Z,9.71
2022-12-25T11:04:29.906Z,9.70
2022-12-25T11:05:30.565Z,9.70
2022-12-25T11:06:31.113Z,9.70
2022-12-25T11:07:31.055Z,9.67
2022-12-25T11:08:31.076Z,9.68
2022-12-25T11:09:31.031Z,9.70
2022-12-25T11:10:29.704Z,9.67
2022-12-25T11:11:29.974Z,9.67
2022-12-25T11:12:29.742Z,9.67
2022-12-25T11:13:29.535Z,9.66
2022-12-25T11:14:29.523Z,9.64
2022-12-25T11:15:29.542Z,9.63
2022-12-25T11:16:29.552Z,9.64
2022-12-25T11:17:29.488Z,9.66
2022-12-25T11:18:29.490Z,9.64
2022-12-25T11:19:29.469Z,9.64
2022-12-25T11:20:29.553Z,9.66
2022-12-25T11:21:29.436Z,9.67
2022-12-25T11:22:29.450Z,9.67
2022-12-25T11:23:29.402Z,9.67
2022-12-25T11:24:29.458Z,9.67
2022-12-25T11:25:29.404Z,9.67
2022-12-25T11:26:29.433Z,9.67
2022-12-25T11:27:29.470Z,9.66
2022-12-25T11:28:29.399Z,9.68
2022-12-25T11:29:29.369Z,9.68
2022-12-25T11:30:29.360Z,9.70
2022-12-25T11:31:29.354Z,9.71
2022-12-25T11:32:29.341Z,9.71
2022-12-25T11:33:29.332Z,9.75
2022-12-25T11:34:29.331Z,9.75
2022-12-25T11:35:29.280Z,9.73
2022-12-25T11:36:29.283Z,9.75
2022-12-25T11:37:29.282Z,9.75
2022-12-25T11:38:29.307Z,9.76
2022-12-25T11:39:29.260Z,9.76
2022-12-25T11:40:29.249Z,9.78
2022-12-25T11:41:29.230Z,9.76
2022-12-25T11:42:29.685Z,9.76
2022-12-25T11:43:29.192Z,9.78
2022-12-25T11:44:29.198Z,9.78
2022-12-25T11:45:29.182Z,9.79
2022-12-25T11:46:29.273Z,9.79
2022-12-25T11:47:29.161Z,9.82
2022-12-25T11:48:29.251Z,9.82
2022-12-25T11:49:29.154Z,9.82
2022-12-25T11:50:29.132Z,9.83
2022-12-25T11:51:29.143Z,9.85
2022-12-25T11:52:29.123Z,9.82
2022-12-25T11:53:29.106Z,9.82
2022-12-25T11:54:29.069Z,9.83
2022-12-25T11:55:29.113Z,9.83
2022-12-25T11:56:29.063Z,9.82
2022-12-25T11:57:29.103Z,9.83
2022-12-25T11:58:29.019Z,9.83
2022-12-25T11:59:29.048Z,9.85
2022-12-25T12:00:29.010Z,9.85
2022-12-25T12:01:29.202Z,9.85
2022-12-25T12:02:29.125Z,9.86
2022-12-25T12:03:29.171Z,9.85
2022-12-25T12:04:31.716Z,9.86
2022-12-25T12:05:28.966Z,9.88
2022-12-25T12:06:28.945Z,9.88
2022-12-25T12:07:28.973Z,9.89
2022-12-25T12:08:28.919Z,9.89
2022-12-25T12:09:28.931Z,9.89
2022-12-25T12:10:28.883Z,9.91
2022-12-25T12:11:28.909Z,9.91
2022-12-25T12:12:28.879Z,9.89
2022-12-25T12:13:28.883Z,9.93
2022-12-25T12:14:28.843Z,9.91
2022-12-25T12:15:28.856Z,9.91
2022-12-25T12:16:28.930Z,9.93
2022-12-25T12:17:28.828Z,9.93
2022-12-25T12:18:28.819Z,9.91
2022-12-25T12:19:28.802Z,9.93
2022-12-25T12:20:28.826Z,9.93
2022-12-25T12:21:28.827Z,9.89
2022-12-25T12:22:28.743Z,9.89
2022-12-25T12:23:28.782Z,9.86
2022-12-25T12:24:28.734Z,9.88
2022-12-25T12:25:28.829Z,9.86
2022-12-25T12:26:28.723Z,9.88
2022-12-25T12:27:28.744Z,9.89
2022-12-25T12:28:28.716Z,9.88
2022-12-25T12:29:28.754Z,9.85
2022-12-25T12:30:28.673Z,9.85
2022-12-25T12:31:28.705Z,9.85
2022-12-25T12:32:28.672Z,9.85
2022-12-25T12:33:28.654Z,9.83
2022-12-25T12:34:28.645Z,9.83
2022-12-25T12:35:28.631Z,9.83
2022-12-25T12:36:36.049Z,9.82
2022-12-25T12:37:29.611Z,9.83
2022-12-25T12:38:28.596Z,9.83
2022-12-25T12:39:28.649Z,9.82
2022-12-25T12:40:30.032Z,9.81
2022-12-25T12:41:30.067Z,9.79
2022-12-25T12:42:29.533Z,9.79
2022-12-25T12:43:29.323Z,9.78
2022-12-25T12:44:29.977Z,9.78
2022-12-25T12:45:30.053Z,9.78
2022-12-25T12:46:31.496Z,9.79
2022-12-25T12:47:29.464Z,9.81
2022-12-25T12:48:29.952Z,9.79
2022-12-25T12:49:29.938Z,9.79
2022-12-25T12:50:29.950Z,9.79
2022-12-25T12:51:29.922Z,9.81
2022-12-25T12:52:29.395Z,9.81
2022-12-25T12:53:29.227Z,9.81
2022-12-25T12:54:28.433Z,9.82
2022-12-25T12:55:28.460Z,9.82
2022-12-25T12:56:28.660Z,9.82
2022-12-25T12:57:28.386Z,9.81
2022-12-25T12:58:28.378Z,9.81
2022-12-25T12:59:28.362Z,9.81
2022-12-25T13:00:28.327Z,9.79
2022-12-25T13:01:28.555Z,9.81
2022-12-25T13:02:28.463Z,9.82
2022-12-25T13:03:28.451Z,9.82
2022-12-25T13:04:28.404Z,9.83
2022-12-25T13:05:34.246Z,9.83
2022-12-25T13:06:29.466Z,9.85
2022-12-25T13:07:29.721Z,9.85
2022-12-25T13:08:28.233Z,9.85
2022-12-25T13:09:29.718Z,9.85
2022-12-25T13:10:28.230Z,9.85
2022-12-25T13:11:28.386Z,9.83
2022-12-25T13:12:28.213Z,9.85
2022-12-25T13:13:28.211Z,9.83
2022-12-25T13:14:28.180Z,9.83
2022-12-25T13:15:28.177Z,9.85
2022-12-25T13:16:28.416Z,9.83
2022-12-25T13:17:28.174Z,9.83
2022-12-25T13:18:28.135Z,9.83